Allgood, Alabama
Current Conditions -  °F | °C
As of 10:15 AM on Friday 31 Oct 2014 (Local Time) from KGAD Reporting Station
Overcast Overcast  
Wind Chill:   Ceiling: 7000
Heat Index:   Visibility: 10mi
Dew Point:   Wind: 3mph
Humidity: 82%   Direction: 310°NW
Pressure: 30"   Gusts: NA
Location:  33.91°N, 86.51°W
Report Text: KGAD 311515Z 31003KT 10SM OVC070 09/06 A3000 RMK AO1
Loading
Personal Weather Stations






























Interactive Weather Map
Tropical Storm Tracking
New forecast layout! Learn more

10-Day Weather Forecast

Advertisements
Track Severe Weather on mobile